createdAt,value
2022-10-09T00:01:16.800Z,9.15
2022-10-09T00:03:46.456Z,9.11
2022-10-09T00:06:16.965Z,9.01
2022-10-09T00:08:43.976Z,9.05
2022-10-09T00:11:14.309Z,9.05
2022-10-09T00:14:00.856Z,8.97
2022-10-09T00:16:29.043Z,8.95
2022-10-09T00:18:57.104Z,8.94
2022-10-09T00:21:29.688Z,8.89
2022-10-09T00:23:58.355Z,8.82
2022-10-09T00:26:25.698Z,8.88
2022-10-09T00:28:53.503Z,8.74
2022-10-09T00:31:21.143Z,8.76
2022-10-09T00:33:48.052Z,8.79
2022-10-09T00:36:18.471Z,8.70
2022-10-09T00:38:45.323Z,8.77
2022-10-09T00:41:19.275Z,8.81
2022-10-09T00:44:01.094Z,8.71
2022-10-09T00:46:41.270Z,8.72
2022-10-09T00:49:08.108Z,8.59
2022-10-09T00:51:35.236Z,8.51
2022-10-09T00:54:05.504Z,8.50
2022-10-09T00:56:33.856Z,8.50
2022-10-09T00:59:02.666Z,8.40
2022-10-09T01:01:29.579Z,8.54
2022-10-09T01:03:56.475Z,8.55
2022-10-09T01:06:29.331Z,8.38
2022-10-09T01:09:07.290Z,8.44
2022-10-09T01:11:54.984Z,8.38
2022-10-09T01:14:30.298Z,8.42
2022-10-09T01:17:05.825Z,8.30
2022-10-09T01:19:50.149Z,8.31
2022-10-09T01:22:46.092Z,8.23
2022-10-09T01:25:29.063Z,8.23
2022-10-09T01:27:57.057Z,8.17
2022-10-09T01:30:32.836Z,8.13
2022-10-09T01:32:59.862Z,8.19
2022-10-09T01:35:27.059Z,8.06
2022-10-09T01:37:56.625Z,8.05
2022-10-09T01:40:26.457Z,8.04
2022-10-09T01:42:53.743Z,7.96
2022-10-09T01:45:20.812Z,7.89
2022-10-09T01:47:47.675Z,7.88
2022-10-09T01:50:29.399Z,8.09
2022-10-09T01:53:11.008Z,8.00
2022-10-09T01:55:49.888Z,7.93
2022-10-09T01:58:22.689Z,7.86
2022-10-09T02:01:17.102Z,7.97
2022-10-09T02:03:48.930Z,7.94
2022-10-09T02:06:17.980Z,7.95
2022-10-09T02:08:46.908Z,7.88
2022-10-09T02:11:15.054Z,7.87
2022-10-09T02:13:43.890Z,7.78
2022-10-09T02:16:37.734Z,7.92
2022-10-09T02:19:12.391Z,7.75
2022-10-09T02:21:45.088Z,7.78
2022-10-09T02:24:19.010Z,7.75
2022-10-09T02:26:46.508Z,7.85
2022-10-09T02:29:14.886Z,7.83
2022-10-09T02:31:43.434Z,7.69
2022-10-09T02:34:16.063Z,7.70
2022-10-09T02:36:43.156Z,7.79
2022-10-09T02:39:10.329Z,7.84
2022-10-09T02:41:37.485Z,7.87
2022-10-09T02:44:05.695Z,7.78
2022-10-09T02:46:33.923Z,7.75
2022-10-09T02:49:00.933Z,7.81
2022-10-09T02:51:27.814Z,7.75
2022-10-09T02:53:56.021Z,7.89
2022-10-09T02:56:24.031Z,7.86
2022-10-09T02:58:50.872Z,7.84
2022-10-09T03:01:18.620Z,7.87
2022-10-09T03:03:46.349Z,7.83
2022-10-09T03:06:18.885Z,7.78
2022-10-09T03:08:47.844Z,7.70
2022-10-09T03:11:16.406Z,7.78
2022-10-09T03:13:43.552Z,7.91
2022-10-09T03:16:17.027Z,7.87
2022-10-09T03:18:44.425Z,7.84
2022-10-09T03:21:23.893Z,7.74
2022-10-09T03:23:51.246Z,7.80
2022-10-09T03:26:21.547Z,7.88
2022-10-09T03:28:50.422Z,7.80
2022-10-09T03:31:46.575Z,7.91
2022-10-09T03:34:11.213Z,7.85
2022-10-09T03:36:38.294Z,7.89
2022-10-09T03:39:05.118Z,7.89
2022-10-09T03:41:31.981Z,7.81
2022-10-09T03:43:58.794Z,7.92
2022-10-09T03:46:25.884Z,7.84
2022-10-09T03:48:52.687Z,8.02
2022-10-09T03:51:19.617Z,8.13
2022-10-09T03:53:46.403Z,8.09
2022-10-09T03:56:13.310Z,8.20
2022-10-09T03:58:40.152Z,8.22
2022-10-09T04:01:07.094Z,8.14
2022-10-09T04:03:33.935Z,8.21
2022-10-09T04:06:00.884Z,8.32
2022-10-09T04:08:27.671Z,8.47
2022-10-09T04:10:58.760Z,8.49
2022-10-09T04:13:25.810Z,8.63
2022-10-09T04:15:53.636Z,8.68
2022-10-09T04:18:20.826Z,8.73
2022-10-09T04:20:52.354Z,8.81
2022-10-09T04:23:20.661Z,8.78
2022-10-09T04:25:47.440Z,9.01
2022-10-09T04:28:14.567Z,9.06
2022-10-09T04:30:41.449Z,9.14
2022-10-09T04:33:12.743Z,9.26
2022-10-09T04:35:47.045Z,9.29
2022-10-09T04:38:13.869Z,9.35
2022-10-09T04:40:41.264Z,9.61
2022-10-09T04:43:08.316Z,9.73
2022-10-09T04:45:39.663Z,9.86
2022-10-09T04:48:06.497Z,9.97
2022-10-09T04:50:33.485Z,10.07
2022-10-09T04:53:00.393Z,10.18
2022-10-09T04:55:27.231Z,10.39
2022-10-09T04:57:54.136Z,10.50
2022-10-09T05:00:20.917Z,10.55
2022-10-09T05:02:48.201Z,10.60
2022-10-09T05:05:15.332Z,10.74
2022-10-09T05:07:44.911Z,10.81
2022-10-09T05:10:11.763Z,10.72
2022-10-09T05:12:38.772Z,11.05
2022-10-09T05:15:06.288Z,11.24
2022-10-09T05:17:34.454Z,11.25
2022-10-09T05:20:01.351Z,11.40
2022-10-09T05:22:30.096Z,11.67
2022-10-09T05:24:57.033Z,11.95
2022-10-09T05:27:23.920Z,11.94
2022-10-09T05:29:50.825Z,12.08
2022-10-09T05:32:17.708Z,12.21
2022-10-09T05:34:44.523Z,12.39
2022-10-09T05:37:11.434Z,12.39
2022-10-09T05:39:38.271Z,12.50
2022-10-09T05:42:05.550Z,12.78
2022-10-09T05:44:32.348Z,12.75
2022-10-09T05:46:59.207Z,13.01
2022-10-09T05:49:26.021Z,13.11
2022-10-09T05:51:53.605Z,13.18
2022-10-09T05:54:20.510Z,13.27
2022-10-09T05:56:47.473Z,13.42
2022-10-09T05:59:18.943Z,13.49
2022-10-09T06:01:49.099Z,13.61
2022-10-09T06:04:18.438Z,13.61
2022-10-09T06:06:46.247Z,13.75
2022-10-09T06:09:13.746Z,13.86
2022-10-09T06:11:40.853Z,14.01
2022-10-09T06:14:10.396Z,14.01
2022-10-09T06:16:40.207Z,14.14
2022-10-09T06:19:08.082Z,14.26
2022-10-09T06:21:36.660Z,14.27
2022-10-09T06:24:08.396Z,14.32
2022-10-09T06:26:35.431Z,14.42
2022-10-09T06:29:03.563Z,14.58
2022-10-09T06:31:32.772Z,14.56
2022-10-09T06:34:03.094Z,14.56
2022-10-09T06:36:32.443Z,14.65
2022-10-09T06:39:01.041Z,14.99
2022-10-09T06:41:29.301Z,14.79
2022-10-09T06:44:16.535Z,14.92
2022-10-09T06:46:45.250Z,15.16
2022-10-09T06:49:12.422Z,15.12
2022-10-09T06:51:39.640Z,15.09
2022-10-09T06:54:12.407Z,15.08
2022-10-09T06:56:39.507Z,15.24
2022-10-09T06:59:07.397Z,15.27
2022-10-09T07:01:34.939Z,15.41
2022-10-09T07:04:04.838Z,15.57
2022-10-09T07:06:32.568Z,15.54
2022-10-09T07:09:05.483Z,15.74
2022-10-09T07:11:35.552Z,15.82
2022-10-09T07:14:08.010Z,15.62
2022-10-09T07:16:57.472Z,15.66
2022-10-09T07:19:24.350Z,16.05
2022-10-09T07:21:51.150Z,15.94
2022-10-09T07:24:18.768Z,15.90
2022-10-09T07:26:46.943Z,15.97
2022-10-09T07:29:15.458Z,16.10
2022-10-09T07:31:42.237Z,16.04
2022-10-09T07:34:09.230Z,16.31
2022-10-09T07:36:36.445Z,16.01
2022-10-09T07:39:04.825Z,15.99
2022-10-09T07:42:03.920Z,16.18
2022-10-09T07:44:30.966Z,16.49
2022-10-09T07:46:57.824Z,16.32
2022-10-09T07:49:24.669Z,16.34
2022-10-09T07:51:51.516Z,16.58
2022-10-09T07:54:18.418Z,16.70
2022-10-09T07:56:45.339Z,16.76
2022-10-09T07:59:14.378Z,16.63
2022-10-09T08:01:52.804Z,16.55
2022-10-09T08:04:19.835Z,16.89
2022-10-09T08:06:46.622Z,17.01
2022-10-09T08:09:13.462Z,17.06
2022-10-09T08:11:40.275Z,17.03
2022-10-09T08:14:07.822Z,17.26
2022-10-09T08:16:34.649Z,17.49
2022-10-09T08:19:01.978Z,17.31
2022-10-09T08:21:29.466Z,17.58
2022-10-09T08:23:58.095Z,17.52
2022-10-09T08:26:26.867Z,17.67
2022-10-09T08:28:57.206Z,17.80
2022-10-09T08:31:25.220Z,17.63
2022-10-09T08:33:53.346Z,17.72
2022-10-09T08:36:20.433Z,17.64
2022-10-09T08:38:48.295Z,17.82
2022-10-09T08:41:33.382Z,17.63
2022-10-09T08:44:38.577Z,17.50
2022-10-09T08:47:17.195Z,18.11
2022-10-09T08:50:22.678Z,17.81
2022-10-09T08:52:56.993Z,17.95
2022-10-09T08:55:29.736Z,17.79
2022-10-09T08:58:00.981Z,17.85
2022-10-09T09:00:44.848Z,17.69
2022-10-09T09:03:33.343Z,17.85
2022-10-09T09:06:28.139Z,17.77
2022-10-09T09:09:08.615Z,17.37
2022-10-09T09:12:09.901Z,17.77
2022-10-09T09:14:51.159Z,17.82
2022-10-09T09:17:34.525Z,17.77
2022-10-09T09:20:22.656Z,17.71
2022-10-09T09:22:50.767Z,17.94
2022-10-09T09:25:25.071Z,17.73
2022-10-09T09:28:33.183Z,17.86
2022-10-09T09:31:07.222Z,18.05
2022-10-09T09:33:44.754Z,17.94
2022-10-09T09:36:24.044Z,17.89
2022-10-09T09:39:36.232Z,17.61
2022-10-09T09:41:41.409Z,18.06
2022-10-09T09:44:13.678Z,17.66
2022-10-09T09:46:43.654Z,17.23
2022-10-09T09:49:43.873Z,17.30
2022-10-09T09:52:10.932Z,18.04
2022-10-09T09:54:37.972Z,18.43
2022-10-09T09:57:15.802Z,18.38
2022-10-09T09:59:45.410Z,17.59
2022-10-09T10:02:23.979Z,17.49
2022-10-09T10:04:54.127Z,17.66
2022-10-09T10:07:47.318Z,17.93
2022-10-09T10:10:26.628Z,18.11
2022-10-09T10:12:54.039Z,17.87
2022-10-09T10:15:29.219Z,18.14
2022-10-09T10:18:12.399Z,18.27
2022-10-09T10:20:48.226Z,18.27
2022-10-09T10:23:25.845Z,18.10
2022-10-09T10:25:57.715Z,17.90
2022-10-09T10:28:51.210Z,18.04
2022-10-09T10:31:39.785Z,17.72
2022-10-09T10:34:25.575Z,18.24
2022-10-09T10:37:03.719Z,17.93
2022-10-09T10:39:49.981Z,17.86
2022-10-09T10:42:26.012Z,17.81
2022-10-09T10:45:00.769Z,17.83
2022-10-09T10:47:34.509Z,18.00
2022-10-09T10:50:01.828Z,17.78
2022-10-09T10:53:06.094Z,18.17
2022-10-09T10:55:54.699Z,17.95
2022-10-09T10:58:43.014Z,17.99
2022-10-09T11:01:30.784Z,17.93
2022-10-09T11:04:21.853Z,17.73
2022-10-09T11:07:18.478Z,18.02
2022-10-09T11:09:59.431Z,18.19
2022-10-09T11:12:50.100Z,18.21
2022-10-09T11:15:54.455Z,18.13
2022-10-09T11:18:42.292Z,18.41
2022-10-09T11:21:37.484Z,18.38
2022-10-09T11:24:16.116Z,18.14
2022-10-09T11:27:03.572Z,18.03
2022-10-09T11:29:43.710Z,17.92
2022-10-09T11:32:22.316Z,17.72
2022-10-09T11:35:07.249Z,17.80
2022-10-09T11:37:37.375Z,17.74
2022-10-09T11:40:16.404Z,17.91
2022-10-09T11:42:49.760Z,17.81
2022-10-09T11:45:19.488Z,17.66
2022-10-09T11:48:15.288Z,17.58
2022-10-09T11:51:20.281Z,17.58
2022-10-09T11:53:47.796Z,17.56
2022-10-09T11:56:24.149Z,17.34
2022-10-09T11:59:20.961Z,17.30
2022-10-09T12:01:47.887Z,17.30
2022-10-09T12:04:14.632Z,17.27
2022-10-09T12:07:03.244Z,17.23
2022-10-09T12:09:35.959Z,17.52
2022-10-09T12:12:28.833Z,17.52
2022-10-09T12:14:55.811Z,17.51
2022-10-09T12:17:22.544Z,17.73
2022-10-09T12:19:58.704Z,18.06
2022-10-09T12:22:35.642Z,18.14
2022-10-09T12:25:25.984Z,18.04
2022-10-09T12:27:54.707Z,17.99
2022-10-09T12:30:25.291Z,17.97
2022-10-09T12:33:31.217Z,18.14
2022-10-09T12:36:04.739Z,18.15
2022-10-09T12:38:32.893Z,18.30
2022-10-09T12:41:11.938Z,18.03
2022-10-09T12:43:45.618Z,18.03
2022-10-09T12:46:12.953Z,18.01
2022-10-09T12:48:43.175Z,18.03
2022-10-09T12:51:36.354Z,18.28
2022-10-09T12:54:26.856Z,18.11
2022-10-09T12:56:56.422Z,18.18
2022-10-09T13:00:00.074Z,18.29
2022-10-09T13:02:27.230Z,18.32
2022-10-09T13:05:00.119Z,18.19
2022-10-09T13:07:29.762Z,18.18
2022-10-09T13:10:00.139Z,17.95
2022-10-09T13:12:40.964Z,17.88
2022-10-09T13:15:34.595Z,17.91
2022-10-09T13:18:12.635Z,17.89
2022-10-09T13:20:39.703Z,17.71
2022-10-09T13:23:06.635Z,17.78
2022-10-09T13:25:40.499Z,17.89
2022-10-09T13:28:07.440Z,17.69
2022-10-09T13:30:34.328Z,17.53
2022-10-09T13:33:01.229Z,17.41
2022-10-09T13:35:28.159Z,17.29
2022-10-09T13:37:55.066Z,17.21
2022-10-09T13:40:22.038Z,17.17
2022-10-09T13:43:01.141Z,17.16
2022-10-09T13:45:28.746Z,17.02
2022-10-09T13:47:55.555Z,16.92
2022-10-09T13:50:22.443Z,17.00
2022-10-09T13:52:49.325Z,16.94
2022-10-09T13:55:28.614Z,16.93
2022-10-09T13:57:55.551Z,16.86
2022-10-09T14:00:22.785Z,16.65
2022-10-09T14:02:49.861Z,16.64
2022-10-09T14:05:16.745Z,16.65
2022-10-09T14:07:43.630Z,16.65
2022-10-09T14:10:10.967Z,16.56
2022-10-09T14:12:38.275Z,16.56
2022-10-09T14:15:06.006Z,16.57
2022-10-09T14:17:54.993Z,16.53
2022-10-09T14:20:22.244Z,16.46
2022-10-09T14:22:49.204Z,16.33
2022-10-09T14:25:16.704Z,16.27
2022-10-09T14:27:44.167Z,16.24
2022-10-09T14:30:11.730Z,16.23
2022-10-09T14:32:38.560Z,16.13
2022-10-09T14:35:05.776Z,16.12
2022-10-09T14:37:42.208Z,16.09
2022-10-09T14:40:11.030Z,15.94
2022-10-09T14:42:39.301Z,15.99
2022-10-09T14:45:32.321Z,16.02
2022-10-09T14:47:59.276Z,16.08
2022-10-09T14:50:26.181Z,16.07
2022-10-09T14:52:53.078Z,16.15
2022-10-09T14:55:19.925Z,16.12
2022-10-09T14:57:46.948Z,16.28
2022-10-09T15:00:14.269Z,16.24
2022-10-09T15:02:44.083Z,16.24
2022-10-09T15:05:10.889Z,16.31
2022-10-09T15:07:37.735Z,16.33
2022-10-09T15:10:36.807Z,16.33
2022-10-09T15:13:04.070Z,16.24
2022-10-09T15:15:32.742Z,16.28
2022-10-09T15:17:59.808Z,16.31
2022-10-09T15:20:26.985Z,16.19
2022-10-09T15:22:53.855Z,16.14
2022-10-09T15:25:20.639Z,16.17
2022-10-09T15:27:51.324Z,16.11
2022-10-09T15:30:21.253Z,16.08
2022-10-09T15:32:48.035Z,15.94
2022-10-09T15:35:14.983Z,15.72
2022-10-09T15:37:41.808Z,15.68
2022-10-09T15:40:09.296Z,15.66
2022-10-09T15:42:36.109Z,15.61
2022-10-09T15:45:04.063Z,15.68
2022-10-09T15:47:49.954Z,15.58
2022-10-09T15:50:17.654Z,15.57
2022-10-09T15:52:44.464Z,15.52
2022-10-09T15:55:11.355Z,15.42
2022-10-09T15:57:38.122Z,15.34
2022-10-09T16:00:05.698Z,15.33
2022-10-09T16:02:32.627Z,15.16
2022-10-09T16:04:59.492Z,15.18
2022-10-09T16:07:26.283Z,15.17
2022-10-09T16:09:53.182Z,15.13
2022-10-09T16:12:19.927Z,15.13
2022-10-09T16:14:46.766Z,15.06
2022-10-09T16:17:13.771Z,15.03
2022-10-09T16:19:40.653Z,14.98
2022-10-09T16:22:07.623Z,14.85
2022-10-09T16:24:34.544Z,14.91
2022-10-09T16:27:01.395Z,14.94
2022-10-09T16:29:29.992Z,14.91
2022-10-09T16:31:56.816Z,14.90
2022-10-09T16:34:23.657Z,14.81
2022-10-09T16:36:50.579Z,14.93
2022-10-09T16:39:17.601Z,14.85
2022-10-09T16:41:44.447Z,14.65
2022-10-09T16:44:14.353Z,14.74
2022-10-09T16:46:41.151Z,14.72
2022-10-09T16:49:15.512Z,14.56
2022-10-09T16:51:42.982Z,14.63
2022-10-09T16:54:10.510Z,14.66
2022-10-09T16:56:39.861Z,14.46
2022-10-09T16:59:12.295Z,14.53
2022-10-09T17:01:40.092Z,14.53
2022-10-09T17:04:06.905Z,14.35
2022-10-09T17:06:33.866Z,14.52
2022-10-09T17:09:01.517Z,14.39
2022-10-09T17:11:30.089Z,14.34
2022-10-09T17:13:57.465Z,14.36
2022-10-09T17:16:28.723Z,14.31
2022-10-09T17:18:56.096Z,14.27
2022-10-09T17:21:25.800Z,14.26
2022-10-09T17:23:56.907Z,14.22
2022-10-09T17:26:25.556Z,14.12
2022-10-09T17:28:53.242Z,13.99
2022-10-09T17:31:22.905Z,14.05
2022-10-09T17:33:55.018Z,14.17
2022-10-09T17:36:24.293Z,14.08
2022-10-09T17:38:51.729Z,13.96
2022-10-09T17:41:21.793Z,13.90
2022-10-09T17:44:10.763Z,13.86
2022-10-09T17:46:37.681Z,13.87
2022-10-09T17:49:04.489Z,13.86
2022-10-09T17:51:34.435Z,13.90
2022-10-09T17:54:05.980Z,13.77
2022-10-09T17:56:36.411Z,13.70
2022-10-09T17:59:03.975Z,13.80
2022-10-09T18:01:31.343Z,13.67
2022-10-09T18:03:58.840Z,13.72
2022-10-09T18:06:26.607Z,13.71
2022-10-09T18:08:55.311Z,13.61
2022-10-09T18:11:23.606Z,13.66
2022-10-09T18:13:50.940Z,13.62
2022-10-09T18:16:21.380Z,13.61
2022-10-09T18:18:48.664Z,13.54
2022-10-09T18:21:16.824Z,13.67
2022-10-09T18:23:45.544Z,13.57
2022-10-09T18:26:15.433Z,13.54
2022-10-09T18:28:44.752Z,13.66
2022-10-09T18:31:21.251Z,13.60
2022-10-09T18:34:23.959Z,13.64
2022-10-09T18:36:50.975Z,13.54
2022-10-09T18:39:18.817Z,13.45
2022-10-09T18:41:45.653Z,13.56
2022-10-09T18:44:16.492Z,13.35
2022-10-09T18:46:51.425Z,13.36
2022-10-09T18:49:21.202Z,13.46
2022-10-09T18:51:49.024Z,13.43
2022-10-09T18:54:19.236Z,13.41
2022-10-09T18:56:46.937Z,13.47
2022-10-09T18:59:44.505Z,13.42
2022-10-09T19:02:11.367Z,13.35
2022-10-09T19:05:01.090Z,13.46
2022-10-09T19:07:28.033Z,13.32
2022-10-09T19:09:57.375Z,13.34
2022-10-09T19:12:25.065Z,13.29
2022-10-09T19:14:52.299Z,13.32
2022-10-09T19:17:19.361Z,13.21
2022-10-09T19:19:46.143Z,13.36
2022-10-09T19:22:16.443Z,13.28
2022-10-09T19:24:44.728Z,13.33
2022-10-09T19:27:11.748Z,13.27
2022-10-09T19:29:38.891Z,13.23
2022-10-09T19:32:34.829Z,13.36
2022-10-09T19:35:01.803Z,13.30
2022-10-09T19:37:29.861Z,13.27
2022-10-09T19:39:57.089Z,13.21
2022-10-09T19:42:23.961Z,13.15
2022-10-09T19:44:50.876Z,13.24
2022-10-09T19:47:17.672Z,13.11
2022-10-09T19:50:03.255Z,13.19
2022-10-09T19:52:30.247Z,13.26
2022-10-09T19:54:57.197Z,13.27
2022-10-09T19:57:24.084Z,13.37
2022-10-09T19:59:50.892Z,13.26
2022-10-09T20:02:17.864Z,13.24
2022-10-09T20:04:49.184Z,13.37
2022-10-09T20:07:16.187Z,13.46
2022-10-09T20:09:43.285Z,13.41
2022-10-09T20:12:10.235Z,13.38
2022-10-09T20:14:37.142Z,13.38
2022-10-09T20:17:04.076Z,13.43
2022-10-09T20:19:30.893Z,13.47
2022-10-09T20:21:58.007Z,13.42
2022-10-09T20:24:24.895Z,13.45
2022-10-09T20:26:51.739Z,13.43
2022-10-09T20:29:18.805Z,13.41
2022-10-09T20:31:45.725Z,13.44
2022-10-09T20:34:12.542Z,13.35
2022-10-09T20:36:39.480Z,13.39
2022-10-09T20:39:15.931Z,13.43
2022-10-09T20:41:43.329Z,13.36
2022-10-09T20:44:11.571Z,13.35
2022-10-09T20:46:39.704Z,13.29
2022-10-09T20:49:10.648Z,13.37
2022-10-09T20:51:38.753Z,13.38
2022-10-09T20:54:07.092Z,13.35
2022-10-09T20:56:34.498Z,13.51
2022-10-09T20:59:01.925Z,13.32
2022-10-09T21:01:29.221Z,13.20
2022-10-09T21:03:57.790Z,13.17
2022-10-09T21:06:25.180Z,13.29
2022-10-09T21:08:52.032Z,13.24
2022-10-09T21:11:19.471Z,13.26
2022-10-09T21:13:46.820Z,13.27
2022-10-09T21:16:16.682Z,13.30
2022-10-09T21:18:43.600Z,13.29
2022-10-09T21:21:19.499Z,13.42
2022-10-09T21:23:51.011Z,13.36
2022-10-09T21:26:19.849Z,13.24
2022-10-09T21:28:47.156Z,13.26
2022-10-09T21:31:23.023Z,13.31
2022-10-09T21:33:52.107Z,13.27
2022-10-09T21:36:30.992Z,13.29
2022-10-09T21:38:59.159Z,13.30
2022-10-09T21:41:27.661Z,13.32
2022-10-09T21:43:54.931Z,13.31
2022-10-09T21:46:21.872Z,13.29
2022-10-09T21:48:48.817Z,13.29
2022-10-09T21:51:15.707Z,13.15
2022-10-09T21:53:43.276Z,13.27
2022-10-09T21:56:10.532Z,13.20
2022-10-09T21:58:38.820Z,13.21
2022-10-09T22:01:06.995Z,13.18
2022-10-09T22:03:36.351Z,13.10
2022-10-09T22:06:09.293Z,13.14
2022-10-09T22:08:36.328Z,13.11
2022-10-09T22:11:07.937Z,13.17
2022-10-09T22:13:34.967Z,13.15
2022-10-09T22:16:06.494Z,13.06
2022-10-09T22:18:34.046Z,13.17
2022-10-09T22:21:07.268Z,12.98
2022-10-09T22:23:34.747Z,13.17
2022-10-09T22:26:05.938Z,12.97
2022-10-09T22:28:33.376Z,13.05
2022-10-09T22:31:23.444Z,12.91
2022-10-09T22:33:55.745Z,12.87
2022-10-09T22:36:24.093Z,12.80
2022-10-09T22:38:54.500Z,12.80
2022-10-09T22:41:22.704Z,12.65
2022-10-09T22:43:51.731Z,12.65
2022-10-09T22:46:31.330Z,12.82
2022-10-09T22:48:58.583Z,12.82
2022-10-09T22:51:27.753Z,12.75
2022-10-09T22:53:56.047Z,12.79
2022-10-09T22:56:29.390Z,12.74
2022-10-09T22:58:56.575Z,12.86
2022-10-09T23:01:29.091Z,12.88
2022-10-09T23:04:00.482Z,12.87
2022-10-09T23:06:27.544Z,12.74
2022-10-09T23:08:54.436Z,12.68
2022-10-09T23:11:22.478Z,12.84
2022-10-09T23:13:57.064Z,12.86
2022-10-09T23:16:25.235Z,12.87
2022-10-09T23:18:52.029Z,12.98
2022-10-09T23:21:21.706Z,12.99
2022-10-09T23:23:50.611Z,13.02
2022-10-09T23:26:30.356Z,12.91
2022-10-09T23:29:00.617Z,12.86
2022-10-09T23:31:28.530Z,12.92
2022-10-09T23:33:55.989Z,12.93
2022-10-09T23:36:24.772Z,12.87
2022-10-09T23:38:51.761Z,12.87
2022-10-09T23:41:21.705Z,13.01
2022-10-09T23:43:52.989Z,13.07
2022-10-09T23:46:22.773Z,13.01
2022-10-09T23:48:51.179Z,13.08
2022-10-09T23:51:19.864Z,13.05
2022-10-09T23:53:47.367Z,13.03
2022-10-09T23:56:26.707Z,13.00
2022-10-09T23:58:55.051Z,12.99
